ADDS METAR Data INFO
IDs: Format: Raw Decoded Include TAF

Data at: 0207 UTC 20 Sep 2017

KEDC 200155Z AUTO 16007KT 10SM 29/22 A2985 RMK AO2
KEDC 200135Z AUTO 16007KT 10SM BKN021 OVC028 28/22 A2985 RMK AO2
KEDC 200115Z AUTO 00000KT 10SM 28/22 A2985 RMK AO2
KEDC 200055Z AUTO 15005KT 10SM SCT025 29/22 A2984 RMK AO2
KEDC 200035Z AUTO 16005KT 10SM CLR 29/22 A2984 RMK AO2
KEDC 200015Z AUTO 16005KT 10SM CLR 30/22 A2985 RMK AO2
KEDC 192355Z AUTO 17005KT 10SM CLR 30/22 A2985 RMK AO2
KEDC 192335Z AUTO 00000KT 10SM CLR 30/22 A2985 RMK AO2
KEDC 192315Z AUTO 17005KT 10SM CLR 31/22 A2984 RMK AO2
KEDC 192255Z AUTO 17006KT 10SM CLR 32/22 A2984 RMK AO2
KEDC 192235Z AUTO 17007KT 10SM CLR 32/22 A2983 RMK AO2
KEDC 192215Z AUTO 16007KT 10SM FEW044 32/22 A2984 RMK AO2
KEDC 192155Z AUTO 16008G14KT 10SM FEW042 33/22 A2984 RMK AO2
KEDC 192135Z AUTO 18008KT 10SM FEW044 33/22 A2984 RMK AO2
KEDC 192115Z AUTO 18007G14KT 150V210 10SM SCT046 SCT065 33/22 A2985 RMK AO2
KEDC 192055Z AUTO 18008KT 10SM FEW044 SCT050 33/22 A2986 RMK AO2
KEDC 192035Z AUTO 19009KT 10SM FEW045 33/22 A2987 RMK AO2
KEDC 192015Z AUTO 17009G16KT 10SM FEW045 32/21 A2988 RMK AO2
KEDC 191955Z AUTO 19011G14KT 150V220 10SM SCT043 33/22 A2989 RMK AO2
KEDC 191935Z AUTO 20009KT 10SM SCT041 33/22 A2990 RMK AO2
KEDC 191915Z AUTO 19011G16KT 10SM FEW039 33/22 A2991 RMK AO2
KEDC 191855Z AUTO 20009G15KT 10SM FEW038 FEW045 32/22 A2992 RMK AO2
KEDC 191835Z AUTO 20012KT 10SM SCT038 32/22 A2993 RMK AO2
KEDC 191815Z AUTO 17010KT 10SM SCT038 32/22 A2994 RMK AO2
KEDC 191755Z AUTO 19013G17KT 10SM FEW044 32/22 A2995 RMK AO2
KEDC 191735Z AUTO 20010KT 10SM FEW032 SCT042 30/22 A2996 RMK AO2
KEDC 191715Z AUTO 21009G15KT 10SM SCT032 BKN040 30/23 A2996 RMK AO2
KEDC 191655Z AUTO 21009KT 10SM SCT032 30/22 A2997 RMK AO2
KEDC 191635Z AUTO 20009G16KT 180V240 10SM SCT029 BKN039 30/23 A2997 RMK AO2
KEDC 191615Z AUTO 20013G18KT 10SM SCT026 BKN037 30/23 A2997 RMK AO2
KEDC 191555Z AUTO 20010G17KT 10SM FEW037 29/23 A2998 RMK AO2
KEDC 191535Z AUTO 18010G15KT 150V210 10SM SCT017 SCT035 29/23 A2998 RMK AO2
KEDC 191515Z AUTO 18010G15KT 9SM BKN015 OVC024 28/24 A2998 RMK AO2
KEDC 191455Z AUTO 18009G14KT 8SM BKN013 BKN018 OVC023 28/24 A2998 RMK AO2
KEDC 191435Z AUTO 17007KT 7SM FEW009 BKN012 27/24 A2997 RMK AO2
KEDC 191415Z AUTO 18007KT 5SM BR SCT008 BKN015 OVC028 26/24 A2997 RMK AO2
KEDC 191355Z AUTO 19006KT 5SM BR BKN006 BKN013 BKN028 26/25 A2997 RMK AO2
KEDC 191335Z AUTO 18006KT 3SM BR BKN006 25/25 A2997 RMK AO2
KEDC 191315Z AUTO 00000KT 3SM BR OVC006 25/25 A2997 RMK AO2
KEDC 191255Z AUTO 00000KT 2 1/2SM BR BKN006 OVC029 24/24 A2996 RMK AO2
KEDC 191235Z AUTO 00000KT 2 1/2SM BR BKN005 OVC028 24/24 A2996 RMK AO2
KEDC 191215Z AUTO 00000KT 3SM BR 24/24 A2995 RMK AO2
KEDC 191155Z AUTO 17004KT 3SM BR 24/24 A2995 RMK AO2
KEDC 191135Z AUTO 17003KT 3SM BR 24/24 A2995 RMK AO2
KEDC 191115Z AUTO 00000KT 3SM BR 24/24 A2995 RMK AO2
KEDC 191055Z AUTO 17005KT 3SM BR 24/24 A2995 RMK AO2
KEDC 191035Z AUTO 00000KT 4SM BR 24/24 A2995 RMK AO2
KEDC 191015Z AUTO 00000KT 5SM BR 24/24 A2995 RMK AO2
KEDC 190955Z AUTO 17003KT 5SM BR 24/24 A2994 RMK AO2
KEDC 190935Z AUTO 19003KT 5SM BR 24/24 A2994 RMK AO2
KEDC 190915Z AUTO 00000KT 5SM BR 24/24 A2994 RMK AO2
KEDC 190855Z AUTO 00000KT 5SM BR 24/24 A2994 RMK AO2
KEDC 190835Z AUTO 00000KT 5SM BR 24/24 A2994 RMK AO2
KEDC 190815Z AUTO 00000KT 6SM BR 24/24 A2994 RMK AO2
KEDC 190755Z AUTO 19004KT 7SM 24/24 A2993 RMK AO2
KEDC 190735Z AUTO 18003KT 7SM 23/23 A2993 RMK AO2
KEDC 190715Z AUTO 00000KT 8SM OVC012 24/24 A2993 RMK AO2
KEDC 190655Z AUTO 00000KT 9SM OVC012 24/24 A2993 RMK AO2
KEDC 190635Z AUTO 00000KT 10SM OVC012 24/24 A2993 RMK AO2
KEDC 190615Z AUTO 20006KT 10SM 24/24 A2994 RMK AO2
KEDC 190555Z AUTO 20005KT 10SM 24/24 A2994 RMK AO2
KEDC 190535Z AUTO 00000KT 10SM OVC014 24/24 A2995 RMK AO2
KEDC 190515Z AUTO 00000KT 10SM 25/24 A2995 RMK AO2
KEDC 190455Z AUTO 19003KT 10SM 25/24 A2995 RMK AO2
KEDC 190435Z AUTO 00000KT 10SM OVC014 25/23 A2995 RMK AO2
KEDC 190415Z AUTO 00000KT 10SM OVC014 25/23 A2995 RMK AO2
KEDC 190355Z AUTO 17004KT 10SM 26/23 A2995 RMK AO2
KEDC 190335Z AUTO 16006KT 10SM OVC014 26/23 A2995 RMK AO2
KEDC 190315Z AUTO 16005KT 10SM 27/23 A2994 RMK AO2
KEDC 190255Z AUTO 00000KT 10SM 27/23 A2994 RMK AO2
KEDC 190235Z AUTO 16005KT 10SM OVC019 27/24 A2994 RMK AO2
KEDC 190215Z AUTO 15006KT 10SM 28/23 A2994 RMK AO2
KEDC 190155Z AUTO 15007KT 10SM 28/23 A2993 RMK AO2
KEDC 190135Z AUTO 16007KT 10SM 28/23 A2993 RMK AO2
KEDC 190115Z AUTO 16005KT 10SM 29/23 A2992 RMK AO2
KEDC 190055Z AUTO 14007KT 10SM 29/23 A2991 RMK AO2
KEDC 190035Z AUTO 15006KT 10SM CLR 30/23 A2991 RMK AO2
KEDC 190015Z AUTO 14006KT 10SM CLR 31/21 A2990 RMK AO2
KEDC 182355Z AUTO 15004KT 10SM CLR 32/20 A2991 RMK AO2
KEDC 182335Z AUTO 15003KT 10SM CLR 32/20 A2991 RMK AO2
KEDC 182315Z AUTO 00000KT 10SM CLR 33/20 A2991 RMK AO2
KEDC 182255Z AUTO 00000KT 10SM CLR 33/20 A2991 RMK AO2
KEDC 182235Z AUTO 00000KT 10SM FEW050 33/20 A2991 RMK AO2
KEDC 182215Z AUTO 00000KT 10SM SCT050 33/20 A2991 RMK AO2
KEDC 182155Z AUTO 00000KT 10SM FEW060 32/20 A2991 RMK AO2
KEDC 182135Z AUTO 19004KT 10SM FEW060 33/21 A2992 RMK AO2
KEDC 182115Z AUTO 18004KT 10SM FEW060 33/21 A2993 RMK AO2
KEDC 182055Z AUTO 20004KT 10SM FEW049 SCT060 33/20 A2993 RMK AO2
KEDC 182035Z AUTO 00000KT 10SM BKN049 33/20 A2994 RMK AO2
KEDC 182015Z AUTO 00000KT 10SM CLR 33/20 A2995 RMK AO2
KEDC 181955Z AUTO 22006KT 10SM CLR 33/20 A2996 RMK AO2
KEDC 181935Z AUTO 00000KT 10SM FEW047 33/20 A2997 RMK AO2
KEDC 181915Z AUTO 20004KT 10SM CLR 33/20 A2998 RMK AO2
KEDC 181855Z AUTO 00000KT 10SM FEW040 32/21 A2999 RMK AO2
KEDC 181835Z AUTO 17006KT 10SM FEW040 32/22 A3000 RMK AO2
KEDC 181815Z AUTO 18003KT 10SM FEW039 32/22 A3001 RMK AO2
KEDC 181755Z AUTO 19004KT 10SM FEW035 30/22 A3002 RMK AO2
KEDC 181735Z AUTO 18004KT 10SM FEW033 31/22 A3002 RMK AO2
KEDC 181715Z AUTO 00000KT 10SM SCT026 SCT033 30/23 A3003 RMK AO2
KEDC 181655Z AUTO 00000KT 10SM BKN026 29/23 A3004 RMK AO2
KEDC 181635Z AUTO 19006KT 10SM FEW025 SCT036 29/23 A3004 RMK AO2
KEDC 181615Z AUTO 20007KT 10SM FEW025 BKN031 29/23 A3004 RMK AO2
KEDC 181555Z AUTO 18005KT 10SM FEW016 OVC029 28/23 A3003 RMK AO2
KEDC 181535Z AUTO 18006KT 10SM OVC027 27/23 A3004 RMK AO2
KEDC 181515Z AUTO 19005KT 10SM BKN015 OVC027 27/23 A3004 RMK AO2
KEDC 181455Z AUTO 17007KT 9SM BKN015 OVC021 28/23 A3003 RMK AO2
KEDC 181435Z AUTO 21005KT 10SM BKN013 27/23 A3002 RMK AO2
KEDC 181415Z AUTO 20004KT 10SM SCT017 26/23 A3002 RMK AO2